Time;durP1;ratioP1;P1;durP2;ratioP2;P2;SDS_P1;SDS_P2;PMS_P1;PMS_P2;Temp;Humidity;BMP_temperature;BMP_pressure;BME280_temperature;BME280_humidity;BME280_pressure;Samples;Min_cycle;Max_cycle;Signal;HPM_P1;HPM_P2
2020/12/20 00:01:14;;;;;;;162.00;80.55;;;7.40;86.30;;;;;;5110164;28;20036;-43
2020/12/20 00:03:40;;;;;;;154.85;81.47;;;7.40;86.20;;;;;;5095345;28;20027;-45
2020/12/20 00:06:06;;;;;;;161.15;84.32;;;7.40;85.70;;;;;;5094934;28;20027;-46
2020/12/20 00:08:32;;;;;;;168.85;83.30;;;7.50;85.70;;;;;;5094629;28;20127;-47
2020/12/20 00:10:57;;;;;;;165.85;86.75;;;7.50;85.70;;;;;;5094832;28;20631;-50
2020/12/20 00:13:23;;;;;;;168.55;83.15;;;7.40;85.50;;;;;;5092850;28;20039;-48
2020/12/20 00:15:49;;;;;;;170.35;90.75;;;7.40;86.10;;;;;;5094642;28;20115;-45
2020/12/20 00:18:14;;;;;;;166.48;88.03;;;7.40;85.70;;;;;;5094772;28;20024;-46
2020/12/20 00:20:40;;;;;;;147.00;75.47;;;7.50;85.70;;;;;;5094697;28;20020;-44
2020/12/20 00:23:06;;;;;;;153.77;78.68;;;7.50;85.90;;;;;;5094670;28;20380;-49
2020/12/20 00:25:32;;;;;;;164.85;71.35;;;7.50;85.30;;;;;;5094636;28;20096;-45
2020/12/20 00:27:57;;;;;;;140.50;62.90;;;7.50;84.80;;;;;;5092197;28;20129;-44
2020/12/20 00:30:23;;;;;;;144.43;64.88;;;7.50;85.00;;;;;;5092095;28;20036;-47
2020/12/20 00:32:51;;;;;;;141.73;66.07;;;7.50;85.30;;;;;;5092066;28;20652;-47
2020/12/20 00:35:17;;;;;;;123.13;62.55;;;7.50;85.70;;;;;;5092261;28;20039;-47
2020/12/20 00:37:43;;;;;;;125.07;61.97;;;7.40;85.30;;;;;;5092063;28;20039;-53
2020/12/20 00:40:09;;;;;;;131.15;64.78;;;7.40;85.60;;;;;;5091973;28;20153;-50
2020/12/20 00:42:34;;;;;;;136.77;69.80;;;7.30;86.10;;;;;;5092071;28;20050;-50
2020/12/20 00:45:00;;;;;;;153.75;69.93;;;7.30;86.50;;;;;;5092003;28;20524;-49
2020/12/20 00:47:26;;;;;;;142.00;62.72;;;7.30;86.00;;;;;;5091913;28;20055;-49
2020/12/20 00:49:52;;;;;;;153.18;65.53;;;7.30;86.00;;;;;;5091984;28;20029;-47
2020/12/20 00:52:17;;;;;;;159.48;64.00;;;7.20;85.80;;;;;;5091843;28;20020;-47
2020/12/20 00:54:43;;;;;;;144.50;58.67;;;7.10;86.40;;;;;;5091931;28;20089;-49
2020/12/20 00:57:12;;;;;;;138.93;57.22;;;6.90;87.00;;;;;;5091877;28;20412;-47
2020/12/20 00:59:38;;;;;;;125.95;55.17;;;;;;;;;;5058085;28;20032;-48
2020/12/20 01:02:04;;;;;;;123.25;53.90;;;7.10;87.20;;;;;;5094013;28;20097;-50
2020/12/20 01:04:29;;;;;;;106.00;47.80;;;7.10;87.50;;;;;;5094166;28;20464;-51
2020/12/20 01:06:58;;;;;;;104.63;48.97;;;7.20;87.00;;;;;;5093843;28;20025;-48
2020/12/20 01:09:25;;;;;;;99.85;44.92;;;7.20;86.90;;;;;;5108959;28;20060;-46
2020/12/20 01:11:51;;;;;;;96.68;42.13;;;7.10;87.20;;;;;;5091377;28;20050;-49
2020/12/20 01:14:17;;;;;;;90.85;41.00;;;6.70;87.60;;;;;;5057671;28;20404;-48
2020/12/20 01:16:43;;;;;;;85.03;38.30;;;6.90;87.70;;;;;;5091486;28;20032;-47
2020/12/20 01:19:09;;;;;;;90.13;40.25;;;7.00;87.40;;;;;;5091635;28;20020;-47
2020/12/20 01:21:34;;;;;;;84.90;37.85;;;7.00;87.90;;;;;;5091422;28;20051;-46
2020/12/20 01:24:01;;;;;;;80.30;39.00;;;6.90;87.50;;;;;;5091513;28;20034;-48
2020/12/20 01:26:28;;;;;;;80.07;38.30;;;6.80;88.30;;;;;;5091408;28;20106;-46
2020/12/20 01:28:56;;;;;;;79.20;38.53;;;6.90;88.70;;;;;;5091236;28;20055;-47
2020/12/20 01:31:22;;;;;;;82.05;38.30;;;7.00;88.10;;;;;;5057723;28;20063;-47
2020/12/20 01:33:48;;;;;;;76.32;36.17;;;7.10;87.40;;;;;;5091470;28;20028;-47
2020/12/20 01:36:15;;;;;;;84.63;38.42;;;7.30;86.90;;;;;;5091224;28;20072;-47
2020/12/20 01:38:41;;;;;;;78.60;37.95;;;7.00;86.60;;;;;;5091446;28;20559;-50
2020/12/20 01:41:08;;;;;;;77.25;35.85;;;6.90;88.20;;;;;;5091357;28;20032;-45
2020/12/20 01:43:41;;;;;;;76.72;37.65;;;7.10;87.90;;;;;;5092978;28;20142;-48
2020/12/20 01:46:15;;;;;;;83.97;40.30;;;7.20;87.30;;;;;;5093626;28;20032;-50
2020/12/20 01:48:42;;;;;;;79.05;37.70;;;7.20;86.30;;;;;;5093335;28;20178;-51
2020/12/20 01:51:09;;;;;;;83.57;38.03;;;7.10;87.20;;;;;;5093275;28;20032;-47
2020/12/20 01:53:38;;;;;;;81.30;35.65;;;7.20;87.10;;;;;;5093537;28;20050;-48
2020/12/20 01:56:05;;;;;;;79.70;34.00;;;6.90;88.20;;;;;;5093387;28;20033;-51
2020/12/20 01:58:36;;;;;;;86.78;36.28;;;7.00;87.70;;;;;;5093124;28;20021;-50
2020/12/20 02:01:06;;;;;;;86.60;35.63;;;7.00;87.50;;;;;;5093336;28;20464;-45
2020/12/20 02:03:32;;;;;;;85.53;35.25;;;7.10;87.30;;;;;;5093513;28;20093;-48
2020/12/20 02:05:58;;;;;;;75.03;32.88;;;7.10;87.30;;;;;;5108331;28;20416;-47
2020/12/20 02:08:27;;;;;;;78.97;33.60;;;7.10;87.50;;;;;;5093550;28;20043;-48
2020/12/20 02:11:07;;;;;;;85.18;36.50;;;7.10;87.70;;;;;;5093340;28;20024;-46
2020/12/20 02:13:33;;;;;;;85.50;37.67;;;7.00;88.10;;;;;;5093703;28;20054;-50
2020/12/20 02:15:59;;;;;;;97.85;40.35;;;7.00;87.90;;;;;;5097356;28;20036;-52
2020/12/20 02:18:24;;;;;;;93.25;39.85;;;6.80;88.20;;;;;;5095328;28;20047;-50
2020/12/20 02:20:50;;;;;;;100.05;40.75;;;6.80;88.80;;;;;;5095115;28;20410;-51
2020/12/20 02:23:16;;;;;;;99.57;38.55;;;6.80;88.60;;;;;;5097079;28;20042;-45
2020/12/20 02:25:42;;;;;;;95.20;38.35;;;6.60;89.90;;;;;;5097243;28;20103;-50
2020/12/20 02:28:08;;;;;;;95.90;39.95;;;6.80;89.40;;;;;;5094569;28;20058;-50
2020/12/20 02:30:34;;;;;;;105.88;39.17;;;6.80;88.90;;;;;;5096993;28;20028;-48
2020/12/20 02:33:00;;;;;;;96.70;39.58;;;6.90;88.40;;;;;;5096940;28;20020;-47
2020/12/20 02:35:26;;;;;;;98.05;39.60;;;6.80;88.90;;;;;;5096782;28;20020;-49
2020/12/20 02:37:51;;;;;;;92.78;38.45;;;6.80;88.80;;;;;;5097003;28;20045;-50
2020/12/20 02:40:18;;;;;;;87.50;34.85;;;6.80;89.30;;;;;;5096900;28;20067;-50
2020/12/20 02:42:43;;;;;;;86.47;36.72;;;6.80;88.30;;;;;;5094904;28;20032;-52
2020/12/20 02:45:09;;;;;;;92.57;37.00;;;;;;;;;;5096620;28;20035;-47
2020/12/20 02:47:35;;;;;;;83.15;35.85;;;6.80;92.10;;;;;;5111862;28;20605;-52
2020/12/20 02:50:01;;;;;;;97.80;36.70;;;6.70;90.90;;;;;;5096744;28;20107;-48
2020/12/20 02:52:26;;;;;;;93.50;35.17;;;6.50;90.40;;;;;;5096589;28;20047;-48
2020/12/20 02:54:52;;;;;;;87.72;35.70;;;6.40;90.40;;;;;;5096506;28;20028;-50
2020/12/20 02:57:18;;;;;;;89.72;37.40;;;6.50;90.80;;;;;;5096288;28;20141;-48
2020/12/20 02:59:43;;;;;;;96.57;38.13;;;6.50;90.20;;;;;;5096684;28;20025;-46
2020/12/20 03:02:09;;;;;;;82.95;35.55;;;6.50;90.20;;;;;;5096212;28;20564;-46
2020/12/20 03:04:35;;;;;;;80.28;33.17;;;6.70;90.00;;;;;;5094343;28;20426;-48
2020/12/20 03:07:00;;;;;;;72.65;33.60;;;6.90;90.60;;;;;;5096327;28;20051;-48
2020/12/20 03:09:26;;;;;;;76.65;35.78;;;6.80;89.80;;;;;;5096104;28;20036;-52
2020/12/20 03:11:52;;;;;;;91.50;45.67;;;6.70;89.40;;;;;;5096279;28;20028;-49
2020/12/20 03:14:17;;;;;;;81.22;36.47;;;6.70;90.20;;;;;;5094192;28;20115;-48
2020/12/20 03:16:43;;;;;;;73.32;33.30;;;6.70;89.70;;;;;;5096146;28;20020;-50
2020/12/20 03:19:09;;;;;;;61.35;30.50;;;6.70;89.90;;;;;;5095927;28;20107;-47
2020/12/20 03:21:35;;;;;;;70.15;31.00;;;6.70;89.00;;;;;;5095851;28;20471;-48
2020/12/20 03:24:02;;;;;;;68.47;33.10;;;6.50;90.10;;;;;;5096139;28;20380;-50
2020/12/20 03:26:28;;;;;;;69.78;31.20;;;6.50;90.20;;;;;;5094682;28;20063;-47
2020/12/20 03:28:54;;;;;;;73.28;30.73;;;6.50;90.40;;;;;;5093883;28;20091;-49
2020/12/20 03:31:23;;;;;;;74.07;31.95;;;6.60;90.10;;;;;;5095915;28;20028;-50
2020/12/20 03:33:48;;;;;;;81.60;32.78;;;6.50;90.30;;;;;;5095778;28;20039;-45
2020/12/20 03:36:14;;;;;;;74.25;31.05;;;6.50;90.40;;;;;;5093707;28;20036;-52
2020/12/20 03:38:40;;;;;;;73.32;30.52;;;6.60;90.00;;;;;;5095755;28;20023;-50
2020/12/20 03:41:06;;;;;;;71.90;31.23;;;6.60;90.10;;;;;;5095592;28;20058;-47
2020/12/20 03:43:31;;;;;;;77.78;33.90;;;6.60;90.10;;;;;;5095447;28;20036;-49
2020/12/20 03:45:59;;;;;;;69.45;31.67;;;6.60;90.10;;;;;;5095611;28;20024;-49
2020/12/20 03:48:25;;;;;;;70.03;30.23;;;6.50;90.30;;;;;;5094466;28;20162;-50
2020/12/20 03:50:51;;;;;;;67.45;31.55;;;6.70;90.10;;;;;;5095509;28;20056;-49
2020/12/20 03:53:17;;;;;;;67.90;30.27;;;6.90;89.40;;;;;;5095584;28;20655;-48
2020/12/20 03:55:42;;;;;;;68.30;30.77;;;6.80;89.30;;;;;;5095131;28;20410;-50
2020/12/20 03:58:08;;;;;;;67.40;30.90;;;6.80;89.30;;;;;;5093323;28;20043;-51
2020/12/20 04:00:34;;;;;;;72.68;31.45;;;6.60;90.10;;;;;;5093049;28;20056;-49
2020/12/20 04:02:59;;;;;;;67.95;29.30;;;6.60;90.20;;;;;;5094965;28;20024;-48
2020/12/20 04:05:25;;;;;;;70.80;31.80;;;6.50;90.40;;;;;;5095034;28;20028;-51
2020/12/20 04:07:51;;;;;;;69.75;30.58;;;6.40;90.50;;;;;;5095041;28;20032;-45
2020/12/20 04:10:17;;;;;;;73.53;30.80;;;6.50;90.50;;;;;;5095140;28;20102;-50
2020/12/20 04:12:42;;;;;;;74.38;31.17;;;6.40;90.50;;;;;;5110008;28;20046;-45
2020/12/20 04:15:08;;;;;;;73.28;31.33;;;6.40;90.70;;;;;;5095098;28;20028;-47
2020/12/20 04:17:34;;;;;;;75.10;31.73;;;6.50;90.60;;;;;;5095029;28;20077;-46
2020/12/20 04:19:59;;;;;;;71.63;31.58;;;6.50;90.50;;;;;;5094691;28;20110;-47
2020/12/20 04:22:25;;;;;;;76.32;32.53;;;6.70;90.30;;;;;;5094784;28;20024;-50
2020/12/20 04:24:51;;;;;;;71.50;33.22;;;6.80;89.80;;;;;;5058430;28;20039;-47
2020/12/20 04:27:16;;;;;;;74.38;31.45;;;7.00;89.70;;;;;;5093461;28;20032;-50
2020/12/20 04:29:42;;;;;;;67.28;30.63;;;6.70;89.90;;;;;;5057523;28;20052;-49
2020/12/20 04:32:08;;;;;;;71.72;31.60;;;6.90;88.80;;;;;;5093509;28;20031;-53
2020/12/20 04:34:35;;;;;;;67.68;30.80;;;6.80;89.40;;;;;;5093281;28;20052;-51
2020/12/20 04:37:14;;;;;;;74.78;32.30;;;6.70;89.70;;;;;;5056966;28;20032;-50
2020/12/20 04:39:40;;;;;;;68.43;31.25;;;6.80;89.10;;;;;;5091072;28;20044;-47
2020/12/20 04:42:07;;;;;;;71.18;30.00;;;6.70;89.60;;;;;;5093302;28;20034;-50
2020/12/20 04:44:34;;;;;;;70.70;30.20;;;6.60;89.80;;;;;;5093102;28;20024;-48
2020/12/20 04:47:01;;;;;;;68.90;32.00;;;6.40;90.50;;;;;;5092959;28;20479;-44
2020/12/20 04:49:34;;;;;;;76.60;33.33;;;6.40;90.80;;;;;;5092923;28;20032;-48
2020/12/20 04:52:00;;;;;;;75.78;35.75;;;6.30;90.80;;;;;;5092847;28;20031;-51
2020/12/20 04:54:32;;;;;;;75.15;34.67;;;6.40;90.40;;;;;;5092989;28;20031;-50
2020/12/20 04:56:58;;;;;;;;;;;6.40;90.80;;;;;;5093330;28;20460;-50
2020/12/20 04:59:25;;;;;;;64.72;28.85;;;6.40;90.50;;;;;;5092942;28;20003;-53
2020/12/20 05:01:51;;;;;;;68.10;32.13;;;6.30;91.10;;;;;;5092841;28;20020;-47
2020/12/20 05:04:17;;;;;;;71.68;30.88;;;6.20;91.20;;;;;;5092735;28;20031;-51
2020/12/20 05:06:42;;;;;;;71.35;32.05;;;6.30;91.20;;;;;;5092651;28;20035;-47
2020/12/20 05:09:09;;;;;;;68.50;29.75;;;6.40;90.70;;;;;;5092916;28;20114;-50
2020/12/20 05:11:38;;;;;;;70.28;31.08;;;6.60;90.70;;;;;;5092724;28;20024;-49
2020/12/20 05:14:06;;;;;;;69.10;31.50;;;6.60;90.10;;;;;;5092730;28;20595;-48
2020/12/20 05:16:38;;;;;;;70.13;30.55;;;6.60;90.50;;;;;;5091863;28;20024;-49
2020/12/20 05:19:06;;;;;;;76.90;33.88;;;6.40;90.30;;;;;;5091791;28;20392;-51
2020/12/20 05:21:33;;;;;;;67.30;31.05;;;6.40;90.80;;;;;;5089274;28;20028;-46
2020/12/20 05:24:00;;;;;;;60.88;29.23;;;6.20;90.50;;;;;;5091847;28;20035;-47
2020/12/20 05:26:30;;;;;;;68.18;32.80;;;6.30;90.80;;;;;;5091845;28;20023;-46
2020/12/20 05:29:13;;;;;;;60.00;30.83;;;6.50;90.40;;;;;;5089599;28;20530;-50
2020/12/20 05:31:39;;;;;;;69.93;31.48;;;6.50;90.90;;;;;;5089877;28;20082;-47
2020/12/20 05:34:05;;;;;;;63.83;28.60;;;6.30;90.90;;;;;;5092067;28;20032;-48
2020/12/20 05:36:31;;;;;;;64.38;28.13;;;6.40;90.90;;;;;;5092325;28;20051;-47
2020/12/20 05:39:19;;;;;;;67.28;31.33;;;6.20;94.50;;;;;;5092285;28;20020;-47
2020/12/20 05:41:45;;;;;;;58.47;26.40;;;6.30;92.30;;;;;;5091940;28;20102;-48
2020/12/20 05:44:23;;;;;;;61.78;30.23;;;6.00;91.00;;;;;;5092178;28;20123;-52
2020/12/20 05:46:50;;;;;;;62.40;29.35;;;6.30;91.10;;;;;;5092082;28;20487;-49
2020/12/20 05:49:20;;;;;;;58.40;29.88;;;6.10;91.00;;;;;;5093193;28;20036;-52
2020/12/20 05:52:10;;;;;;;58.35;29.52;;;6.10;91.20;;;;;;5096404;28;20032;-51
2020/12/20 05:54:39;;;;;;;60.00;28.33;;;6.10;91.30;;;;;;5020319;28;20112;-47
2020/12/20 05:57:16;;;;;;;56.03;27.45;;;6.30;90.70;;;;;;5053394;28;20033;-48
2020/12/20 05:59:43;;;;;;;58.25;28.80;;;6.40;90.80;;;;;;5003885;28;20033;-47
2020/12/20 06:02:10;;;;;;;54.35;27.30;;;6.20;90.70;;;;;;5053534;28;20029;-49
2020/12/20 06:04:37;;;;;;;57.63;28.30;;;6.40;90.50;;;;;;5053515;28;20087;-47
2020/12/20 06:07:04;;;;;;;58.17;28.58;;;6.20;90.60;;;;;;5053226;28;20041;-50
2020/12/20 06:09:30;;;;;;;65.05;32.22;;;6.20;90.60;;;;;;5053282;28;20029;-43
2020/12/20 06:11:57;;;;;;;59.47;31.00;;;6.00;91.20;;;;;;5053293;28;20110;-53
2020/12/20 06:14:27;;;;;;;59.75;28.98;;;6.10;90.50;;;;;;5053304;28;20100;-50
2020/12/20 06:17:13;;;;;;;55.15;28.25;;;6.00;90.90;;;;;;5053267;28;20503;-53
2020/12/20 06:19:50;;;;;;;54.30;29.60;;;6.10;90.70;;;;;;5052945;28;20040;-44
2020/12/20 06:22:30;;;;;;;56.85;29.67;;;5.90;91.10;;;;;;5052856;28;20494;-49
2020/12/20 06:25:00;;;;;;;58.45;29.33;;;6.10;91.20;;;;;;5003256;28;20069;-47
2020/12/20 06:27:29;;;;;;;62.70;32.72;;;5.90;91.00;;;;;;5053100;28;20075;-45
2020/12/20 06:29:56;;;;;;;63.03;33.08;;;6.10;91.20;;;;;;5052951;28;20048;-48
2020/12/20 06:33:05;;;;;;;59.80;33.10;;;6.00;91.00;;;;;;5088062;28;20417;-49
2020/12/20 06:35:32;;;;;;;53.25;30.70;;;6.20;90.90;;;;;;5052790;28;20132;-50
2020/12/20 06:37:58;;;;;;;69.07;33.30;;;6.40;90.70;;;;;;5052978;28;20033;-50
2020/12/20 06:40:30;;;;;;;70.22;34.05;;;6.50;90.50;;;;;;5052682;28;20040;-48
2020/12/20 06:42:59;;;;;;;64.40;33.58;;;6.70;95.60;;;;;;5052866;28;20025;-49
2020/12/20 06:45:27;;;;;;;65.05;32.47;;;6.50;95.70;;;;;;5052786;28;20111;-53
2020/12/20 06:48:00;;;;;;;61.50;30.35;;;6.60;95.40;;;;;;5052461;28;20404;-50
2020/12/20 06:50:46;;;;;;;53.20;27.95;;;6.60;95.10;;;;;;5052490;28;20032;-47
2020/12/20 06:53:14;;;;;;;55.85;25.23;;;;;;;;;;5019261;28;20033;-50
2020/12/20 06:55:40;;;;;;;50.88;28.15;;;5.80;99.90;;;;;;5052653;28;20021;-50
2020/12/20 06:58:09;;;;;;;53.67;26.60;;;5.90;99.90;;;;;;5052535;28;20087;-46
2020/12/20 07:00:56;;;;;;;46.95;21.98;;;6.00;99.90;;;;;;5052181;28;20056;-50
2020/12/20 07:03:24;;;;;;;52.28;27.33;;;5.90;99.40;;;;;;5052290;28;20104;-48
2020/12/20 07:05:54;;;;;;;49.78;27.90;;;;;;;;;;5052346;28;20037;-47
2020/12/20 07:08:30;;;;;;;50.05;27.98;;;6.50;96.80;;;;;;5052183;28;20048;-47
2020/12/20 07:11:01;;;;;;;46.67;27.02;;;6.70;96.40;;;;;;5002590;28;20507;-48
2020/12/20 07:13:33;;;;;;;47.60;26.25;;;6.80;95.10;;;;;;5055455;28;20403;-48
2020/12/20 07:16:12;;;;;;;46.80;26.23;;;6.80;96.90;;;;;;5092254;28;20039;-51
2020/12/20 07:18:47;;;;;;;44.95;23.13;;;6.70;97.20;;;;;;5089862;28;20039;-48
2020/12/20 07:21:53;;;;;;;43.50;24.95;;;6.80;96.50;;;;;;5094176;28;20020;-48
2020/12/20 07:24:23;;;;;;;47.60;25.65;;;6.20;90.40;;;;;;5082961;28;20541;-45
2020/12/20 07:26:50;;;;;;;54.75;28.02;;;6.20;91.00;;;;;;5084804;28;20036;-47
2020/12/20 07:29:17;;;;;;;59.72;29.25;;;5.90;90.90;;;;;;5073271;28;20072;-48
2020/12/20 07:31:45;;;;;;;50.20;27.88;;;5.70;91.70;;;;;;5089555;28;20016;-44
2020/12/20 07:34:11;;;;;;;59.75;34.08;;;5.90;91.20;;;;;;5055387;28;20136;-46
2020/12/20 07:36:38;;;;;;;80.03;46.83;;;6.20;91.30;;;;;;5073983;28;20602;-46
2020/12/20 07:39:05;;;;;;;58.40;34.10;;;6.20;91.00;;;;;;5092422;28;20487;-50
2020/12/20 07:41:31;;;;;;;45.38;26.80;;;6.20;90.90;;;;;;5094187;28;20111;-53
2020/12/20 07:43:59;;;;;;;44.45;26.00;;;6.10;90.30;;;;;;5109174;28;20584;-51
2020/12/20 07:46:25;;;;;;;41.17;24.15;;;5.70;91.30;;;;;;5094215;28;20480;-53
2020/12/20 07:48:51;;;;;;;46.92;28.88;;;5.80;91.40;;;;;;5094101;28;20049;-53
2020/12/20 07:51:20;;;;;;;37.20;22.67;;;6.00;91.10;;;;;;5094103;28;20055;-53
2020/12/20 07:53:49;;;;;;;41.17;22.65;;;5.90;90.60;;;;;;5093837;28;20032;-50
2020/12/20 07:56:24;;;;;;;43.53;25.17;;;6.00;90.40;;;;;;5083609;28;20538;-52
2020/12/20 07:58:51;;;;;;;38.83;22.98;;;6.00;91.00;;;;;;5094109;28;20463;-53
2020/12/20 08:01:18;;;;;;;45.40;26.10;;;5.80;90.70;;;;;;5083284;28;20427;-50
2020/12/20 08:03:45;;;;;;;41.53;22.23;;;6.10;90.80;;;;;;5089466;28;20022;-51
2020/12/20 08:06:13;;;;;;;45.13;24.13;;;5.80;90.90;;;;;;5094104;28;20047;-53
2020/12/20 08:08:40;;;;;;;39.05;21.70;;;5.60;91.60;;;;;;5078814;28;20045;-50
2020/12/20 08:11:32;;;;;;;42.22;23.42;;;;;;;;;;5077185;28;20422;-51
2020/12/20 08:14:05;;;;;;;41.10;20.33;;;5.70;91.60;;;;;;5083962;28;20123;-51
2020/12/20 08:16:33;;;;;;;50.65;27.58;;;5.50;91.30;;;;;;5094102;28;20032;-52
2020/12/20 08:19:09;;;;;;;51.80;31.85;;;5.90;91.30;;;;;;5091432;28;20039;-51
2020/12/20 08:21:46;;;;;;;48.97;28.00;;;6.00;91.10;;;;;;5079211;28;20479;-53
2020/12/20 08:24:14;;;;;;;42.50;24.58;;;6.10;91.00;;;;;;5073255;28;20500;-51
2020/12/20 08:26:41;;;;;;;47.95;26.17;;;6.20;94.30;;;;;;5073096;28;20572;-51
2020/12/20 08:29:07;;;;;;;50.17;28.45;;;6.20;94.40;;;;;;5072937;28;20571;-52
2020/12/20 08:31:34;;;;;;;55.65;30.63;;;6.20;94.40;;;;;;5073123;28;20379;-50
2020/12/20 08:34:01;;;;;;;66.82;34.05;;;6.20;94.20;;;;;;5073260;28;20048;-51
2020/12/20 08:36:28;;;;;;;61.97;32.95;;;6.10;95.00;;;;;;5073254;28;20028;-51
2020/12/20 08:38:54;;;;;;;67.57;34.95;;;6.30;94.60;;;;;;5073099;28;20021;-51
2020/12/20 08:41:25;;;;;;;55.00;31.45;;;6.40;94.00;;;;;;5087778;28;20144;-52
2020/12/20 08:44:03;;;;;;;58.38;33.50;;;6.20;91.70;;;;;;5073044;28;20028;-50
2020/12/20 08:46:35;;;;;;;71.90;33.95;;;6.00;94.30;;;;;;5072933;28;20024;-50
2020/12/20 08:49:22;;;;;;;54.97;30.80;;;6.00;95.30;;;;;;5087670;28;20110;-51
2020/12/20 08:51:49;;;;;;;62.50;33.65;;;6.20;94.70;;;;;;5072751;28;20273;-52
2020/12/20 08:54:28;;;;;;;60.35;31.25;;;6.00;93.80;;;;;;5072814;28;20024;-52
2020/12/20 08:56:59;;;;;;;56.90;30.20;;;5.70;91.50;;;;;;5072595;28;20028;-51
2020/12/20 08:59:30;;;;;;;66.50;36.40;;;5.80;91.90;;;;;;5077324;28;20035;-51
2020/12/20 09:01:58;;;;;;;90.35;46.63;;;5.80;91.70;;;;;;5078144;28;20307;-51
2020/12/20 09:04:25;;;;;;;61.63;32.65;;;5.80;91.40;;;;;;5072585;28;20024;-50
2020/12/20 09:07:16;;;;;;;65.72;35.60;;;5.70;91.40;;;;;;5072304;28;20534;-52
2020/12/20 09:09:42;;;;;;;66.72;37.80;;;5.40;91.80;;;;;;5070387;28;20098;-51
2020/12/20 09:12:16;;;;;;;62.33;34.47;;;5.60;91.70;;;;;;5070266;28;20055;-52
2020/12/20 09:14:58;;;;;;;55.03;28.35;;;5.60;92.20;;;;;;5072311;28;20027;-51
2020/12/20 09:17:50;;;;;;;;;;;5.30;92.50;;;;;;5072849;28;20447;-51
2020/12/20 09:20:18;;;;;;;53.20;26.17;;;5.70;92.10;;;;;;5070947;28;20370;-51
2020/12/20 09:22:47;;;;;;;60.53;28.30;;;5.50;91.80;;;;;;5071955;28;20384;-52
2020/12/20 09:25:34;;;;;;;60.42;30.27;;;5.50;92.30;;;;;;5070137;28;20043;-49
2020/12/20 09:28:03;;;;;;;71.22;37.85;;;5.60;92.50;;;;;;5071492;28;21089;-50
2020/12/20 09:30:41;;;;;;;72.63;34.38;;;5.90;91.50;;;;;;5072369;28;20039;-50
2020/12/20 09:33:23;;;;;;;58.60;32.17;;;5.80;91.70;;;;;;5072123;28;20358;-47
2020/12/20 09:35:57;;;;;;;56.15;29.83;;;5.70;92.00;;;;;;5072171;28;20119;-49
2020/12/20 09:38:24;;;;;;;52.28;27.52;;;5.80;91.80;;;;;;5072175;28;20035;-47
2020/12/20 09:40:58;;;;;;;61.40;31.40;;;5.90;91.50;;;;;;5053206;28;20056;-51
2020/12/20 09:43:24;;;;;;;57.10;28.02;;;6.00;91.20;;;;;;5072244;28;20024;-54
2020/12/20 09:45:50;;;;;;;59.53;28.60;;;6.00;91.30;;;;;;5072105;28;20082;-49
2020/12/20 09:48:16;;;;;;;51.60;26.48;;;5.80;91.40;;;;;;5072001;28;20507;-47
2020/12/20 09:50:41;;;;;;;64.78;30.98;;;5.80;91.60;;;;;;5072076;28;20553;-49
2020/12/20 09:53:07;;;;;;;51.78;26.50;;;;;;;;;;5071957;28;20025;-47
2020/12/20 09:55:33;;;;;;;53.65;27.15;;;6.30;99.90;;;;;;5072100;28;20085;-50
2020/12/20 09:57:59;;;;;;;56.80;30.42;;;6.30;90.60;;;;;;5071895;28;20037;-51
2020/12/20 10:00:25;;;;;;;51.75;28.10;;;6.30;90.40;;;;;;5071972;28;20076;-52
2020/12/20 10:02:51;;;;;;;49.67;26.45;;;6.40;90.60;;;;;;5071970;28;20032;-45
2020/12/20 10:05:16;;;;;;;57.50;28.33;;;6.20;90.60;;;;;;5071597;28;20024;-47
2020/12/20 10:07:42;;;;;;;56.28;27.73;;;6.10;90.60;;;;;;5069467;28;20059;-48
2020/12/20 10:10:08;;;;;;;50.17;27.75;;;6.20;90.50;;;;;;5071776;28;20024;-49
2020/12/20 10:12:35;;;;;;;36.45;17.27;;;5.90;91.60;;;;;;5071816;28;20094;-48
2020/12/20 10:15:01;;;;;;;59.53;32.33;;;5.80;96.00;;;;;;5071643;28;20087;-58
2020/12/20 10:17:26;;;;;;;59.42;30.77;;;6.10;91.30;;;;;;5084763;28;20519;-52
2020/12/20 10:19:53;;;;;;;52.58;27.20;;;5.80;92.30;;;;;;5091784;28;20027;-54
2020/12/20 10:22:19;;;;;;;54.03;27.52;;;5.60;91.80;;;;;;5089171;28;20024;-47
2020/12/20 10:24:45;;;;;;;53.63;25.52;;;5.50;92.10;;;;;;5091808;28;20021;-53
2020/12/20 10:27:11;;;;;;;55.47;25.77;;;5.50;92.40;;;;;;5091523;28;20027;-49
2020/12/20 10:29:37;;;;;;;59.55;30.75;;;5.50;92.50;;;;;;5075205;28;20102;-53
2020/12/20 10:32:03;;;;;;;57.20;29.08;;;5.70;92.80;;;;;;5071604;28;20032;-50
2020/12/20 10:34:28;;;;;;;57.55;31.13;;;5.60;92.10;;;;;;5072180;28;20052;-48
2020/12/20 10:36:54;;;;;;;51.50;24.10;;;5.80;92.10;;;;;;5075427;28;20031;-45
2020/12/20 10:39:20;;;;;;;63.75;32.15;;;5.50;91.90;;;;;;5090108;28;20079;-50
2020/12/20 10:41:46;;;;;;;57.97;29.48;;;5.80;92.30;;;;;;5075376;28;20062;-46
2020/12/20 10:44:12;;;;;;;61.17;31.55;;;5.80;91.80;;;;;;5083101;28;20435;-50
2020/12/20 10:46:38;;;;;;;61.30;31.95;;;6.00;91.60;;;;;;5092870;28;20044;-50
2020/12/20 10:49:04;;;;;;;57.67;28.55;;;6.20;91.00;;;;;;5095442;28;20050;-49
2020/12/20 10:51:30;;;;;;;60.85;32.03;;;6.20;90.70;;;;;;5110131;28;20031;-47
2020/12/20 10:53:56;;;;;;;66.07;34.97;;;6.00;91.30;;;;;;5093140;28;20063;-49
2020/12/20 10:56:22;;;;;;;72.20;38.83;;;6.40;90.90;;;;;;5092842;28;20115;-46
2020/12/20 10:58:49;;;;;;;74.65;40.45;;;6.20;91.10;;;;;;5094217;28;20020;-50
2020/12/20 11:01:19;;;;;;;69.82;36.05;;;6.40;91.00;;;;;;5074996;28;20410;-50
2020/12/20 11:03:49;;;;;;;82.43;39.53;;;6.40;92.30;;;;;;5072863;28;20033;-47
2020/12/20 11:06:22;;;;;;;72.28;36.50;;;6.30;93.80;;;;;;5074741;28;20345;-50
2020/12/20 11:08:48;;;;;;;75.40;37.95;;;6.20;94.00;;;;;;5074654;28;20551;-47
2020/12/20 11:11:18;;;;;;;71.50;36.55;;;6.40;93.60;;;;;;5074612;28;20047;-47
2020/12/20 11:13:45;;;;;;;74.18;41.75;;;6.10;93.60;;;;;;5083792;28;20051;-51
2020/12/20 11:16:15;;;;;;;73.97;39.60;;;6.20;91.60;;;;;;5094882;28;20020;-49
2020/12/20 11:18:43;;;;;;;78.57;39.17;;;6.00;91.70;;;;;;5091705;28;20036;-47
2020/12/20 11:21:13;;;;;;;79.13;40.22;;;6.20;91.00;;;;;;5094953;28;20028;-48
2020/12/20 11:23:40;;;;;;;73.45;34.38;;;6.10;91.20;;;;;;5094594;28;20020;-47
2020/12/20 11:26:26;;;;;;;81.72;40.10;;;5.90;95.30;;;;;;5094883;28;20027;-51
2020/12/20 11:28:53;;;;;;;87.55;41.53;;;6.00;91.70;;;;;;5058096;28;20052;-50
2020/12/20 11:31:23;;;;;;;83.22;42.22;;;6.00;91.70;;;;;;5094617;28;20051;-47
2020/12/20 11:33:52;;;;;;;82.18;41.03;;;;;;;;;;5094520;28;20020;-47
2020/12/20 11:36:20;;;;;;;79.05;38.03;;;6.20;91.20;;;;;;5093961;28;20077;-47
2020/12/20 11:38:47;;;;;;;79.03;40.25;;;5.90;91.90;;;;;;5094564;28;20089;-48
2020/12/20 11:41:13;;;;;;;90.40;43.55;;;6.00;92.00;;;;;;5094428;28;20028;-47
2020/12/20 11:43:39;;;;;;;79.53;39.53;;;;;;;;;;5092136;28;20115;-47
2020/12/20 11:46:05;;;;;;;84.88;41.75;;;6.20;90.60;;;;;;5108245;28;20032;-51
2020/12/20 11:48:31;;;;;;;80.63;42.38;;;6.30;91.00;;;;;;5094033;28;20093;-49
2020/12/20 11:50:57;;;;;;;91.47;43.95;;;6.30;91.40;;;;;;5093140;28;20024;-50
2020/12/20 11:53:25;;;;;;;83.18;39.33;;;6.20;91.40;;;;;;5093687;28;20089;-49
2020/12/20 11:55:51;;;;;;;78.63;39.63;;;6.50;90.70;;;;;;5094021;28;20024;-46
2020/12/20 11:58:17;;;;;;;81.25;43.38;;;6.70;90.80;;;;;;5094217;28;20024;-49
2020/12/20 12:00:47;;;;;;;83.75;42.72;;;6.70;90.20;;;;;;5074689;28;20119;-52
2020/12/20 12:03:14;;;;;;;83.32;42.55;;;6.50;90.30;;;;;;5093879;28;20545;-45
2020/12/20 12:05:42;;;;;;;90.20;45.58;;;6.60;90.20;;;;;;5108745;28;20036;-46
2020/12/20 12:08:08;;;;;;;89.22;46.47;;;6.70;90.40;;;;;;5093729;28;20039;-50
2020/12/20 12:10:34;;;;;;;94.00;43.47;;;6.80;90.10;;;;;;5093755;28;20036;-49
2020/12/20 12:13:03;;;;;;;85.07;43.95;;;6.70;90.00;;;;;;5093748;28;20047;-51
2020/12/20 12:15:31;;;;;;;83.35;42.35;;;6.50;90.30;;;;;;5092962;28;20024;-51
2020/12/20 12:17:57;;;;;;;87.90;38.40;;;6.70;90.00;;;;;;5107929;28;20036;-51
2020/12/20 12:20:23;;;;;;;83.80;40.60;;;6.40;90.30;;;;;;5090696;28;20029;-46
2020/12/20 12:22:48;;;;;;;90.60;47.42;;;6.40;90.80;;;;;;5093150;28;20205;-47
2020/12/20 12:25:15;;;;;;;81.82;40.95;;;6.70;90.40;;;;;;5056964;28;20059;-50
2020/12/20 12:27:41;;;;;;;78.97;39.72;;;6.50;90.40;;;;;;5092614;28;20123;-49
2020/12/20 12:30:08;;;;;;;81.28;40.20;;;6.30;90.70;;;;;;5107596;28;20445;-48
2020/12/20 12:32:35;;;;;;;96.07;46.30;;;6.40;90.90;;;;;;5093049;28;20028;-46
2020/12/20 12:35:00;;;;;;;81.53;41.10;;;6.40;91.00;;;;;;5093442;28;20111;-48
2020/12/20 12:37:26;;;;;;;86.40;40.17;;;6.30;91.30;;;;;;5108097;28;20123;-48
2020/12/20 12:39:52;;;;;;;87.90;44.70;;;6.10;91.60;;;;;;5093486;28;20375;-47
2020/12/20 12:42:18;;;;;;;91.55;44.05;;;6.30;91.20;;;;;;5093171;28;20107;-49
2020/12/20 12:44:44;;;;;;;93.15;47.78;;;;;;;;;;5093166;28;20070;-45